Time;durP1;ratioP1;P1;durP2;ratioP2;P2;SDS_P1;SDS_P2;PMS_P1;PMS_P2;Temp;Humidity;BMP_temperature;BMP_pressure;BME280_temperature;BME280_humidity;BME280_pressure;Samples;Min_cycle;Max_cycle;Signal;HPM_P1;HPM_P2
2023/08/15 00:02:08;;;;;;;14.23;10.90;;;;;;;;;;5011526;28;20358;-68
2023/08/15 00:04:35;;;;;;;14.10;11.02;;;;;;;;;;5016482;28;20101;-68
2023/08/15 00:07:04;;;;;;;14.07;11.45;;;;;;;;;;5019483;28;20049;-67
2023/08/15 00:09:30;;;;;;;13.27;10.75;;;;;;;;;;5020587;28;20125;-67
2023/08/15 00:11:56;;;;;;;13.23;10.88;;;;;;;;;;5016404;28;20121;-68
2023/08/15 00:14:22;;;;;;;17.25;11.32;;;;;;;;;;5020409;28;20060;-68
2023/08/15 00:16:48;;;;;;;13.57;11.25;;;;;;;;;;5026298;28;20046;-68
2023/08/15 00:19:14;;;;;;;12.60;11.20;;;;;;;;;;5017574;28;20405;-67
2023/08/15 00:21:40;;;;;;;15.40;11.38;;;;;;;;;;5018447;28;20084;-68
2023/08/15 00:24:06;;;;;;;14.70;11.38;;;;;;;;;;5012413;28;20069;-68
2023/08/15 00:26:32;;;;;;;14.80;11.85;;;;;;;;;;5003197;28;20045;-68
2023/08/15 00:28:58;;;;;;;12.98;11.55;;;;;;;;;;5015979;28;20046;-68
2023/08/15 00:31:25;;;;;;;13.63;10.38;;;;;;;;;;5025806;28;20038;-68
2023/08/15 00:33:51;;;;;;;11.55;10.10;;;;;;;;;;5024863;28;20618;-68
2023/08/15 00:36:17;;;;;;;15.88;10.20;;;;;;;;;;5024339;28;20128;-68
2023/08/15 00:38:44;;;;;;;12.23;8.93;;;;;;;;;;5024797;28;20413;-68
2023/08/15 00:41:10;;;;;;;13.77;7.45;;;;;;;;;;5011826;28;20535;-68
2023/08/15 00:43:36;;;;;;;10.25;6.68;;;;;;;;;;5007944;28;20045;-68
2023/08/15 00:46:03;;;;;;;12.55;6.47;;;;;;;;;;5007271;28;20094;-68
2023/08/15 00:48:31;;;;;;;12.95;6.60;;;;;;;;;;5025645;28;20045;-68
2023/08/15 00:50:59;;;;;;;12.93;6.95;;;;;;;;;;5023913;28;20388;-68
2023/08/15 00:53:25;;;;;;;14.48;6.95;;;;;;;;;;5008002;28;20050;-68
2023/08/15 00:55:53;;;;;;;13.75;7.45;;;;;;;;;;5017479;28;20044;-69
2023/08/15 00:58:19;;;;;;;11.52;7.43;;;;;;;;;;5008956;28;20052;-68
2023/08/15 01:00:45;;;;;;;13.45;7.28;;;;;;;;;;5025281;28;20042;-68
2023/08/15 01:03:12;;;;;;;10.77;7.13;;;;;;;;;;5020444;28;20038;-68
2023/08/15 01:05:39;;;;;;;13.25;7.18;;;;;;;;;;5014747;28;20066;-68
2023/08/15 01:08:06;;;;;;;12.88;7.38;;;;;;;;;;5004014;28;20041;-68
2023/08/15 01:10:32;;;;;;;16.50;7.50;;;;;;;;;;5014594;28;20088;-68
2023/08/15 01:12:58;;;;;;;11.00;6.40;;;;;;;;;;5019150;28;20041;-69
2023/08/15 01:15:26;;;;;;;11.63;6.85;;;;;;;;;;5026314;28;20082;-68
2023/08/15 01:17:55;;;;;;;13.65;7.00;;;;;;;;;;5016248;28;20352;-68
2023/08/15 01:20:25;;;;;;;15.00;7.25;;;;;;;;;;5005015;28;20046;-68
2023/08/15 01:22:53;;;;;;;12.43;7.28;;;;;;;;;;4999624;28;20042;-68
2023/08/15 01:25:19;;;;;;;12.93;6.45;;;;;;;;;;5002129;28;20481;-68
2023/08/15 01:27:45;;;;;;;13.23;7.35;;;;;;;;;;5007003;28;20481;-69
2023/08/15 01:30:12;;;;;;;11.88;6.30;;;;;;;;;;5016192;28;20042;-68
2023/08/15 01:32:44;;;;;;;11.30;5.30;;;;;;;;;;5008141;28;20038;-69
2023/08/15 01:35:10;;;;;;;9.45;5.47;;;;;;;;;;5018416;28;20397;-68
2023/08/15 01:37:38;;;;;;;10.57;5.20;;;;;;;;;;5022995;28;20037;-68
2023/08/15 01:40:07;;;;;;;8.82;4.72;;;;;;;;;;5005236;28;20473;-69
2023/08/15 01:42:33;;;;;;;8.88;4.32;;;;;;;;;;4992734;28;20489;-68
2023/08/15 01:45:01;;;;;;;7.63;3.90;;;;;;;;;;5011555;28;20486;-68
2023/08/15 01:47:27;;;;;;;9.18;4.28;;;;;;;;;;5021356;28;20049;-68
2023/08/15 01:49:53;;;;;;;5.93;3.65;;;;;;;;;;5014676;28;20134;-68
2023/08/15 01:52:19;;;;;;;9.55;3.80;;;;;;;;;;5003195;28;20057;-68
2023/08/15 01:54:45;;;;;;;9.80;3.40;;;;;;;;;;5028561;28;20046;-68
2023/08/15 01:57:11;;;;;;;10.63;3.42;;;;;;;;;;5025865;28;20044;-68
2023/08/15 01:59:37;;;;;;;9.18;4.05;;;;;;;;;;5027935;28;20054;-68
2023/08/15 02:02:06;;;;;;;5.43;3.42;;;;;;;;;;5028451;28;20048;-68
2023/08/15 02:04:32;;;;;;;7.10;3.80;;;;;;;;;;5014548;28;20389;-68
2023/08/15 02:06:58;;;;;;;8.23;3.72;;;;;;;;;;5020631;28;20057;-68
2023/08/15 02:09:24;;;;;;;8.02;3.63;;;;;;;;;;5011700;28;20038;-68
2023/08/15 02:11:50;;;;;;;7.82;3.88;;;;;;;;;;5026525;28;20076;-68
2023/08/15 02:14:16;;;;;;;7.88;3.58;;;;;;;;;;5020491;28;20064;-68
2023/08/15 02:16:42;;;;;;;7.65;4.00;;;;;;;;;;5018687;28;20054;-68
2023/08/15 02:19:08;;;;;;;7.95;3.83;;;;;;;;;;4996606;28;20046;-68
2023/08/15 02:21:34;;;;;;;9.25;3.50;;;;;;;;;;5007637;28;20401;-68
2023/08/15 02:24:00;;;;;;;7.78;3.17;;;;;;;;;;5018979;28;20038;-68
2023/08/15 02:26:26;;;;;;;7.15;2.85;;;;;;;;;;5026700;28;20488;-68
2023/08/15 02:28:52;;;;;;;6.57;2.65;;;;;;;;;;5026686;28;20222;-68
2023/08/15 02:31:18;;;;;;;6.93;2.65;;;;;;;;;;5024927;28;20071;-68
2023/08/15 02:33:44;;;;;;;5.57;2.60;;;;;;;;;;5009758;28;20489;-68
2023/08/15 02:36:10;;;;;;;6.15;2.63;;;;;;;;;;5026231;28;20048;-67
2023/08/15 02:38:36;;;;;;;4.13;2.55;;;;;;;;;;5030946;28;20121;-68
2023/08/15 02:41:03;;;;;;;9.57;2.92;;;;;;;;;;5023286;28;20060;-67
2023/08/15 02:43:29;;;;;;;5.95;2.47;;;;;;;;;;5031330;28;20048;-67
2023/08/15 02:45:55;;;;;;;5.95;2.42;;;;;;;;;;5010372;28;20054;-68
2023/08/15 02:48:21;;;;;;;5.57;2.30;;;;;;;;;;5015501;28;20046;-68
2023/08/15 02:50:47;;;;;;;7.07;3.00;;;;;;;;;;5018730;28;20054;-68
2023/08/15 02:53:13;;;;;;;7.35;2.58;;;;;;;;;;5012950;28;20555;-67
2023/08/15 02:55:39;;;;;;;3.92;2.45;;;;;;;;;;5007991;28;20042;-68
2023/08/15 02:58:06;;;;;;;5.75;2.50;;;;;;;;;;5026232;28;20124;-67
2023/08/15 03:00:38;;;;;;;5.07;2.63;;;;;;;;;;5013533;28;20516;-67
2023/08/15 03:03:04;;;;;;;7.30;2.95;;;;;;;;;;5011278;28;20049;-67
2023/08/15 03:05:30;;;;;;;7.05;2.88;;;;;;;;;;4994359;28;20054;-67
2023/08/15 03:07:56;;;;;;;10.23;3.10;;;;;;;;;;5055162;27;20403;-68
2023/08/15 03:10:22;;;;;;;6.72;2.65;;;;;;;;;;5135365;27;20039;-67
2023/08/15 03:12:48;;;;;;;8.23;3.00;;;;;;;;;;5040747;27;20472;-67
2023/08/15 03:15:14;;;;;;;11.15;3.35;;;;;;;;;;5020708;28;20053;-68
2023/08/15 03:17:40;;;;;;;5.45;2.80;;;;;;;;;;5010671;28;20046;-68
2023/08/15 03:20:08;;;;;;;6.70;2.78;;;;;;;;;;5010659;28;20469;-67
2023/08/15 03:22:33;;;;;;;7.32;3.15;;;;;;;;;;5004340;28;20049;-68
2023/08/15 03:25:00;;;;;;;7.85;2.88;;;;;;;;;;5029149;28;20045;-68
2023/08/15 03:27:26;;;;;;;5.70;2.67;;;;;;;;;;5012358;28;20530;-67
2023/08/15 03:29:52;;;;;;;7.60;3.28;;;;;;;;;;5020922;28;20536;-68
2023/08/15 03:32:18;;;;;;;7.97;3.55;;;;;;;;;;5015233;28;20128;-68
2023/08/15 03:34:44;;;;;;;6.57;2.90;;;;;;;;;;5029480;28;20124;-68
2023/08/15 03:37:10;;;;;;;10.30;3.33;;;;;;;;;;5029785;28;20137;-67
2023/08/15 03:39:36;;;;;;;8.80;3.15;;;;;;;;;;5006592;28;20041;-68
2023/08/15 03:42:02;;;;;;;9.25;3.40;;;;;;;;;;5019631;28;20456;-68
2023/08/15 03:44:28;;;;;;;8.10;3.40;;;;;;;;;;5028105;28;20041;-68
2023/08/15 03:46:54;;;;;;;11.25;3.63;;;;;;;;;;5028758;28;20045;-68
2023/08/15 03:49:20;;;;;;;10.52;3.60;;;;;;;;;;5019167;28;20042;-67
2023/08/15 03:51:46;;;;;;;7.63;3.00;;;;;;;;;;5010669;28;20045;-68
2023/08/15 03:54:12;;;;;;;7.60;3.20;;;;;;;;;;5011409;28;20072;-68
2023/08/15 03:56:38;;;;;;;10.05;3.45;;;;;;;;;;4998352;28;20046;-68
2023/08/15 03:59:04;;;;;;;10.10;3.65;;;;;;;;;;5011527;28;20054;-67
2023/08/15 04:01:30;;;;;;;6.30;2.95;;;;;;;;;;5026301;28;20503;-68
2023/08/15 04:03:59;;;;;;;7.13;3.28;;;;;;;;;;4995632;28;20121;-68
2023/08/15 04:06:25;;;;;;;8.98;3.45;;;;;;;;;;4998682;28;20053;-68
2023/08/15 04:08:51;;;;;;;9.02;3.15;;;;;;;;;;5016956;28;20553;-68
2023/08/15 04:11:17;;;;;;;10.75;3.55;;;;;;;;;;5018583;28;20053;-68
2023/08/15 04:13:43;;;;;;;9.82;3.67;;;;;;;;;;5010849;28;20046;-68
2023/08/15 04:16:09;;;;;;;13.48;3.60;;;;;;;;;;5016307;28;20408;-68
2023/08/15 04:18:35;;;;;;;12.18;3.55;;;;;;;;;;4993000;28;20050;-68
2023/08/15 04:21:02;;;;;;;11.52;3.58;;;;;;;;;;5042112;27;20164;-69
2023/08/15 04:23:28;;;;;;;11.88;3.90;;;;;;;;;;4997140;28;20516;-69
2023/08/15 04:25:54;;;;;;;7.75;3.63;;;;;;;;;;5015501;28;20562;-69
2023/08/15 04:28:20;;;;;;;8.02;3.63;;;;;;;;;;5024982;27;20061;-68
2023/08/15 04:30:46;;;;;;;10.38;4.15;;;;;;;;;;5018298;28;20037;-69
2023/08/15 04:33:12;;;;;;;9.55;3.78;;;;;;;;;;5019005;28;20485;-69
2023/08/15 04:35:39;;;;;;;12.07;3.88;;;;;;;;;;4997204;28;20054;-69
2023/08/15 04:38:05;;;;;;;7.57;3.38;;;;;;;;;;5060610;27;20043;-69
2023/08/15 04:40:37;;;;;;;9.55;3.63;;;;;;;;;;5106383;27;20092;-69
2023/08/15 04:43:03;;;;;;;8.90;3.60;;;;;;;;;;5071141;27;20053;-69
2023/08/15 04:45:30;;;;;;;10.68;3.90;;;;;;;;;;5010315;28;20050;-69
2023/08/15 04:47:56;;;;;;;9.27;3.70;;;;;;;;;;5007829;28;20050;-69
2023/08/15 04:50:22;;;;;;;11.20;4.15;;;;;;;;;;5011149;28;20057;-69
2023/08/15 04:52:49;;;;;;;14.52;4.43;;;;;;;;;;5028687;28;20050;-69
2023/08/15 04:55:15;;;;;;;10.45;3.80;;;;;;;;;;5025947;28;20046;-69
2023/08/15 04:57:41;;;;;;;10.20;3.70;;;;;;;;;;5011317;28;20057;-68
2023/08/15 05:00:11;;;;;;;14.65;3.85;;;;;;;;;;5029359;28;20045;-69
2023/08/15 05:02:37;;;;;;;12.25;4.10;;;;;;;;;;5010368;28;20512;-69
2023/08/15 05:05:05;;;;;;;9.00;3.80;;;;;;;;;;5029580;28;20062;-69
2023/08/15 05:07:32;;;;;;;8.68;3.53;;;;;;;;;;5013405;28;20057;-69
2023/08/15 05:09:58;;;;;;;10.00;3.72;;;;;;;;;;5013297;28;20511;-69
2023/08/15 05:12:24;;;;;;;8.18;3.70;;;;;;;;;;5029187;28;20445;-68
2023/08/15 05:14:50;;;;;;;7.68;3.55;;;;;;;;;;5010104;28;20050;-69
2023/08/15 05:17:16;;;;;;;8.60;3.58;;;;;;;;;;4991817;28;20046;-69
2023/08/15 05:19:42;;;;;;;10.18;3.80;;;;;;;;;;4996694;28;20048;-68
2023/08/15 05:22:08;;;;;;;11.82;4.00;;;;;;;;;;5029589;28;20400;-69
2023/08/15 05:24:34;;;;;;;11.45;3.72;;;;;;;;;;5026995;28;20045;-69
2023/08/15 05:27:00;;;;;;;9.77;3.83;;;;;;;;;;5026999;28;20076;-68
2023/08/15 05:29:26;;;;;;;13.93;4.13;;;;;;;;;;5010497;28;20133;-69
2023/08/15 05:31:52;;;;;;;9.48;3.78;;;;;;;;;;5021413;28;20090;-69
2023/08/15 05:34:18;;;;;;;9.13;3.38;;;;;;;;;;5029021;28;20590;-68
2023/08/15 05:36:44;;;;;;;11.00;4.07;;;;;;;;;;5005090;28;20381;-69
2023/08/15 05:39:10;;;;;;;10.43;3.40;;;;;;;;;;5029134;28;20037;-69
2023/08/15 05:41:36;;;;;;;11.57;4.10;;;;;;;;;;5028746;28;20037;-69
2023/08/15 05:44:02;;;;;;;9.88;3.45;;;;;;;;;;5027339;28;20069;-68
2023/08/15 05:46:28;;;;;;;12.23;3.55;;;;;;;;;;5011448;28;20045;-69
2023/08/15 05:48:54;;;;;;;9.32;3.60;;;;;;;;;;5011281;28;20049;-69
2023/08/15 05:51:20;;;;;;;9.13;3.83;;;;;;;;;;5027201;28;20053;-69
2023/08/15 05:53:50;;;;;;;9.65;3.30;;;;;;;;;;5010299;28;20057;-69
2023/08/15 05:56:16;;;;;;;9.85;4.03;;;;;;;;;;5020964;28;20046;-68
2023/08/15 05:58:42;;;;;;;7.25;3.45;;;;;;;;;;5008071;28;20121;-69
2023/08/15 06:01:08;;;;;;;8.05;3.65;;;;;;;;;;5009542;28;20069;-69
2023/08/15 06:03:34;;;;;;;10.98;3.75;;;;;;;;;;5019866;28;20053;-69
2023/08/15 06:06:00;;;;;;;8.00;3.00;;;;;;;;;;5009011;28;20046;-69
2023/08/15 06:08:26;;;;;;;11.77;3.45;;;;;;;;;;5010233;28;20133;-69
2023/08/15 06:10:52;;;;;;;11.23;3.65;;;;;;;;;;5030213;28;20499;-69
2023/08/15 06:13:18;;;;;;;11.52;3.65;;;;;;;;;;5031617;28;20102;-68
2023/08/15 06:15:44;;;;;;;12.57;3.75;;;;;;;;;;5016968;28;20140;-69
2023/08/15 06:18:10;;;;;;;9.05;3.17;;;;;;;;;;5012546;28;20172;-68
2023/08/15 06:20:36;;;;;;;9.68;3.63;;;;;;;;;;5011397;28;20124;-69
2023/08/15 06:23:03;;;;;;;10.65;3.40;;;;;;;;;;5030213;28;20147;-68
2023/08/15 06:25:29;;;;;;;5.68;3.08;;;;;;;;;;5014429;28;20053;-68
2023/08/15 06:27:55;;;;;;;9.55;3.38;;;;;;;;;;5027653;28;20159;-68
2023/08/15 06:30:21;;;;;;;10.55;3.92;;;;;;;;;;5031978;28;20441;-68
2023/08/15 06:32:47;;;;;;;8.65;3.40;;;;;;;;;;5023175;28;20422;-68
2023/08/15 06:35:13;;;;;;;9.57;3.28;;;;;;;;;;5029806;28;20170;-68
2023/08/15 06:37:39;;;;;;;8.45;3.50;;;;;;;;;;5030298;28;20056;-68
2023/08/15 06:40:08;;;;;;;8.95;3.33;;;;;;;;;;5029739;28;20042;-68
2023/08/15 06:42:34;;;;;;;10.88;3.55;;;;;;;;;;5031729;28;20041;-69
2023/08/15 06:45:08;;;;;;;10.65;3.88;;;;;;;;;;5028783;28;20481;-69
2023/08/15 06:47:35;;;;;;;7.45;3.20;;;;;;;;;;4993184;28;20045;-69
2023/08/15 06:50:01;;;;;;;8.93;3.20;;;;;;;;;;5016316;28;20488;-68
2023/08/15 06:52:27;;;;;;;9.07;3.85;;;;;;;;;;5013515;28;20080;-68
2023/08/15 06:54:53;;;;;;;9.38;3.50;;;;;;;;;;5031017;28;20059;-68
2023/08/15 06:57:19;;;;;;;7.95;3.13;;;;;;;;;;5013940;28;20045;-68
2023/08/15 06:59:45;;;;;;;6.28;3.13;;;;;;;;;;5012783;28;20377;-69
2023/08/15 07:02:11;;;;;;;7.70;3.50;;;;;;;;;;5029382;28;20097;-69
2023/08/15 07:04:40;;;;;;;10.07;4.05;;;;;;;;;;5023153;28;20057;-69
2023/08/15 07:07:07;;;;;;;6.30;3.05;;;;;;;;;;5010283;28;20085;-68
2023/08/15 07:09:35;;;;;;;9.30;3.00;;;;;;;;;;5009864;28;20505;-69
2023/08/15 07:12:01;;;;;;;6.32;3.25;;;;;;;;;;5013333;28;20050;-68
2023/08/15 07:14:27;;;;;;;12.27;3.65;;;;;;;;;;5029909;28;20049;-68
2023/08/15 07:16:53;;;;;;;5.55;2.95;;;;;;;;;;5028348;28;20222;-68
2023/08/15 07:19:19;;;;;;;6.30;2.90;;;;;;;;;;5011246;28;20081;-68
2023/08/15 07:21:45;;;;;;;7.30;2.85;;;;;;;;;;5021762;28;20097;-69
2023/08/15 07:24:12;;;;;;;6.90;2.85;;;;;;;;;;4992093;28;20050;-69
2023/08/15 07:26:38;;;;;;;6.55;2.75;;;;;;;;;;5009920;28;20042;-69
2023/08/15 07:29:04;;;;;;;10.48;3.08;;;;;;;;;;4992797;28;20057;-69
2023/08/15 07:31:30;;;;;;;7.30;3.10;;;;;;;;;;5016042;28;20570;-69
2023/08/15 07:33:56;;;;;;;6.68;2.92;;;;;;;;;;5011706;28;20077;-69
2023/08/15 07:36:22;;;;;;;8.77;3.30;;;;;;;;;;5026067;28;20396;-70
2023/08/15 07:38:48;;;;;;;9.65;3.35;;;;;;;;;;5029626;28;20447;-69
2023/08/15 07:41:14;;;;;;;6.70;3.00;;;;;;;;;;5027543;28;20125;-69
2023/08/15 07:43:40;;;;;;;8.52;3.35;;;;;;;;;;5009268;28;20045;-69
2023/08/15 07:46:06;;;;;;;5.57;3.22;;;;;;;;;;5010451;28;20046;-69
2023/08/15 07:48:32;;;;;;;6.57;3.22;;;;;;;;;;5010135;28;20050;-69
2023/08/15 07:50:58;;;;;;;5.72;3.00;;;;;;;;;;5009262;28;20084;-69
2023/08/15 07:53:24;;;;;;;7.13;2.83;;;;;;;;;;5010677;28;20057;-68
2023/08/15 07:55:51;;;;;;;6.55;3.30;;;;;;;;;;5029745;28;20081;-69
2023/08/15 07:58:17;;;;;;;8.50;3.40;;;;;;;;;;5028865;28;20045;-69
2023/08/15 08:00:43;;;;;;;8.85;3.58;;;;;;;;;;5029507;28;20081;-69
2023/08/15 08:03:09;;;;;;;7.43;3.08;;;;;;;;;;5010384;28;20095;-69
2023/08/15 08:05:35;;;;;;;8.63;3.60;;;;;;;;;;4937802;28;1083690;-69
2023/08/15 08:08:01;;;;;;;7.57;3.78;;;;;;;;;;5011161;28;20046;-68
2023/08/15 08:10:28;;;;;;;7.57;3.10;;;;;;;;;;5022261;28;20058;-69
2023/08/15 08:12:54;;;;;;;6.53;2.92;;;;;;;;;;5010006;28;20054;-69
2023/08/15 08:15:23;;;;;;;6.28;3.05;;;;;;;;;;4993060;28;20501;-69
2023/08/15 08:17:49;;;;;;;7.90;2.97;;;;;;;;;;5010198;28;20563;-69
2023/08/15 08:20:17;;;;;;;8.40;3.17;;;;;;;;;;5020175;28;20057;-68
2023/08/15 08:22:43;;;;;;;10.90;3.88;;;;;;;;;;5030053;28;20042;-69
2023/08/15 08:25:12;;;;;;;13.25;3.88;;;;;;;;;;5028942;28;20468;-68
2023/08/15 08:27:38;;;;;;;6.90;3.28;;;;;;;;;;5010600;28;20045;-68
2023/08/15 08:30:06;;;;;;;9.30;3.08;;;;;;;;;;5020514;28;20099;-69
2023/08/15 08:32:32;;;;;;;9.73;2.97;;;;;;;;;;5009909;28;20050;-69
2023/08/15 08:34:58;;;;;;;7.50;2.90;;;;;;;;;;5022681;28;20046;-68
2023/08/15 08:37:24;;;;;;;7.60;3.13;;;;;;;;;;5030166;28;20401;-68
2023/08/15 08:39:50;;;;;;;10.45;3.22;;;;;;;;;;5010369;28;20054;-69
2023/08/15 08:42:16;;;;;;;8.07;3.20;;;;;;;;;;5011336;28;20051;-68
2023/08/15 08:44:43;;;;;;;8.32;3.53;;;;;;;;;;5014766;28;20481;-68
2023/08/15 08:47:11;;;;;;;10.20;4.05;;;;;;;;;;5012703;28;20372;-68
2023/08/15 08:49:38;;;;;;;7.18;3.92;;;;;;;;;;5012073;28;20049;-68
2023/08/15 08:52:05;;;;;;;6.18;3.03;;;;;;;;;;5028485;28;20136;-68
2023/08/15 08:54:31;;;;;;;5.85;2.83;;;;;;;;;;5011105;28;20052;-68
2023/08/15 08:56:58;;;;;;;6.20;2.90;;;;;;;;;;5029729;28;20500;-68
2023/08/15 08:59:26;;;;;;;7.65;2.88;;;;;;;;;;5028141;28;20136;-68
2023/08/15 09:01:53;;;;;;;3.58;2.45;;;;;;;;;;5008764;28;20056;-68
2023/08/15 09:04:21;;;;;;;5.55;2.90;;;;;;;;;;5005179;28;20387;-68
2023/08/15 09:06:47;;;;;;;8.35;2.83;;;;;;;;;;5029139;28;20050;-68
2023/08/15 09:09:13;;;;;;;6.47;2.90;;;;;;;;;;5029170;28;20124;-68
2023/08/15 09:11:39;;;;;;;3.60;2.50;;;;;;;;;;5028815;28;20046;-69
2023/08/15 09:14:06;;;;;;;7.07;3.35;;;;;;;;;;5007968;28;20050;-68
2023/08/15 09:16:32;;;;;;;4.47;3.10;;;;;;;;;;5026182;28;20128;-68
2023/08/15 09:19:02;;;;;;;7.07;2.92;;;;;;;;;;5000799;28;20049;-68
2023/08/15 09:21:28;;;;;;;4.90;2.92;;;;;;;;;;5029746;28;20042;-69
2023/08/15 09:23:56;;;;;;;6.05;2.90;;;;;;;;;;5009895;28;20057;-69
2023/08/15 09:26:24;;;;;;;6.20;3.15;;;;;;;;;;5014624;28;20038;-68
2023/08/15 09:28:50;;;;;;;4.28;2.67;;;;;;;;;;5028838;28;20068;-68
2023/08/15 09:31:16;;;;;;;5.97;3.38;;;;;;;;;;5029474;28;20042;-68
2023/08/15 09:33:42;;;;;;;7.20;2.80;;;;;;;;;;4997317;28;20050;-70
2023/08/15 09:36:09;;;;;;;4.90;2.65;;;;;;;;;;5008765;28;20490;-68
2023/08/15 09:38:39;;;;;;;8.50;2.95;;;;;;;;;;5009351;28;20038;-68
2023/08/15 09:41:05;;;;;;;6.72;3.97;;;;;;;;;;5009358;28;20461;-67
2023/08/15 09:43:32;;;;;;;8.13;3.13;;;;;;;;;;5010611;28;20149;-68
2023/08/15 09:45:59;;;;;;;6.88;2.75;;;;;;;;;;5029066;28;20049;-68
2023/08/15 09:48:26;;;;;;;8.25;3.08;;;;;;;;;;5028124;28;20045;-68
2023/08/15 09:50:52;;;;;;;8.07;3.15;;;;;;;;;;5027338;28;20095;-68
2023/08/15 09:53:22;;;;;;;4.43;2.88;;;;;;;;;;5005286;28;20106;-68
2023/08/15 09:55:48;;;;;;;6.18;3.00;;;;;;;;;;5011117;28;20049;-68
2023/08/15 09:58:16;;;;;;;8.80;3.75;;;;;;;;;;5028235;28;20049;-70
2023/08/15 10:00:43;;;;;;;7.93;4.68;;;;;;;;;;5028942;28;20073;-69
2023/08/15 10:03:17;;;;;;;6.65;3.28;;;;;;;;;;5000312;28;20469;-69
2023/08/15 10:05:46;;;;;;;7.55;3.42;;;;;;;;;;5007601;28;20409;-70
2023/08/15 10:08:12;;;;;;;7.65;3.28;;;;;;;;;;5006467;28;20476;-67
2023/08/15 10:10:38;;;;;;;6.55;2.90;;;;;;;;;;5011253;28;20046;-68
2023/08/15 10:13:05;;;;;;;9.73;3.33;;;;;;;;;;5015396;28;20054;-68
2023/08/15 10:15:33;;;;;;;5.35;2.78;;;;;;;;;;5009234;28;20038;-67
2023/08/15 10:17:59;;;;;;;7.78;3.58;;;;;;;;;;4992008;28;20050;-68
2023/08/15 10:20:25;;;;;;;5.95;3.10;;;;;;;;;;4999473;28;20041;-67
2023/08/15 10:22:55;;;;;;;7.72;3.17;;;;;;;;;;5027379;28;20086;-68
2023/08/15 10:25:32;;;;;;;4.80;2.60;;;;;;;;;;5005069;28;20061;-68
2023/08/15 10:27:59;;;;;;;8.38;3.10;;;;;;;;;;5008524;28;20393;-67
2023/08/15 10:30:40;;;;;;;4.60;2.58;;;;;;;;;;5009057;28;20050;-68
2023/08/15 10:33:13;;;;;;;7.93;2.83;;;;;;;;;;4993045;28;20509;-67
2023/08/15 10:35:43;;;;;;;3.70;2.53;;;;;;;;;;4996248;28;20409;-68
2023/08/15 10:38:15;;;;;;;11.20;6.68;;;;;;;;;;5008600;28;20081;-68
2023/08/15 10:40:42;;;;;;;10.82;5.10;;;;;;;;;;5020396;28;20049;-68
2023/08/15 10:43:10;;;;;;;5.10;3.05;;;;;;;;;;5027961;28;20046;-69
2023/08/15 10:45:41;;;;;;;8.38;2.70;;;;;;;;;;5026798;28;20451;-70
2023/08/15 10:48:08;;;;;;;10.75;3.35;;;;;;;;;;5024814;28;20041;-70
2023/08/15 10:50:35;;;;;;;6.20;2.92;;;;;;;;;;5027031;28;20155;-70
2023/08/15 10:53:05;;;;;;;7.05;3.40;;;;;;;;;;5028178;28;20493;-70
2023/08/15 10:55:35;;;;;;;6.80;3.47;;;;;;;;;;5026347;28;20045;-70
2023/08/15 10:58:04;;;;;;;9.18;4.10;;;;;;;;;;5029754;28;20057;-69
2023/08/15 11:00:30;;;;;;;6.05;3.50;;;;;;;;;;5011058;28;20565;-68
2023/08/15 11:02:59;;;;;;;6.55;3.28;;;;;;;;;;5012272;28;20046;-70
2023/08/15 11:05:41;;;;;;;6.95;3.15;;;;;;;;;;5011557;28;20050;-70
2023/08/15 11:08:14;;;;;;;5.07;3.08;;;;;;;;;;5010923;28;20061;-70
2023/08/15 11:10:50;;;;;;;7.43;3.20;;;;;;;;;;5011290;28;20400;-70
2023/08/15 11:13:16;;;;;;;4.68;2.75;;;;;;;;;;5029573;28;20056;-70
2023/08/15 11:15:46;;;;;;;6.97;2.85;;;;;;;;;;5030657;28;20103;-70
2023/08/15 11:18:20;;;;;;;5.28;2.80;;;;;;;;;;5031276;28;20513;-70
2023/08/15 11:20:47;;;;;;;5.43;2.50;;;;;;;;;;4996854;28;20135;-70
2023/08/15 11:23:13;;;;;;;5.55;2.45;;;;;;;;;;4993725;28;20052;-70
2023/08/15 11:25:39;;;;;;;7.22;2.60;;;;;;;;;;5023526;28;20489;-70
2023/08/15 11:28:05;;;;;;;4.93;2.40;;;;;;;;;;5030314;28;20034;-69
2023/08/15 11:30:31;;;;;;;5.40;2.38;;;;;;;;;;5029842;28;20129;-70
2023/08/15 11:32:57;;;;;;;4.47;2.38;;;;;;;;;;4997360;28;20088;-70
2023/08/15 11:35:24;;;;;;;4.22;2.28;;;;;;;;;;4994305;28;20095;-70
2023/08/15 11:37:50;;;;;;;5.00;2.00;;;;;;;;;;4992648;28;20077;-70
2023/08/15 11:40:16;;;;;;;4.95;2.45;;;;;;;;;;5011419;28;20512;-70
2023/08/15 11:42:43;;;;;;;3.08;1.85;;;;;;;;;;5023707;28;20045;-70
2023/08/15 11:45:15;;;;;;;4.35;2.30;;;;;;;;;;5013737;28;20430;-70
2023/08/15 11:47:57;;;;;;;4.07;2.08;;;;;;;;;;5007591;28;20045;-70
2023/08/15 11:50:25;;;;;;;4.85;2.08;;;;;;;;;;5010679;28;20045;-70
2023/08/15 11:52:51;;;;;;;7.70;2.35;;;;;;;;;;5010334;28;20046;-70
2023/08/15 11:55:18;;;;;;;3.90;2.15;;;;;;;;;;4993806;28;20059;-70
2023/08/15 11:57:44;;;;;;;3.45;2.10;;;;;;;;;;5004510;28;20125;-70
2023/08/15 12:00:11;;;;;;;3.53;1.90;;;;;;;;;;5030671;28;20117;-70
2023/08/15 12:02:43;;;;;;;2.92;2.00;;;;;;;;;;5030392;28;20102;-70
2023/08/15 12:05:13;;;;;;;3.30;1.97;;;;;;;;;;5017820;28;20124;-70
2023/08/15 12:07:39;;;;;;;3.17;1.90;;;;;;;;;;4991927;28;20046;-70
2023/08/15 12:10:06;;;;;;;2.97;2.08;;;;;;;;;;5005001;28;20137;-70
2023/08/15 12:12:40;;;;;;;2.67;2.03;;;;;;;;;;5011681;28;20480;-70
2023/08/15 12:15:06;;;;;;;4.70;2.45;;;;;;;;;;5026181;28;20442;-70
2023/08/15 12:17:33;;;;;;;4.13;2.05;;;;;;;;;;5010771;28;20125;-70
2023/08/15 12:19:59;;;;;;;4.45;2.10;;;;;;;;;;5009884;28;20136;-71
2023/08/15 12:22:25;;;;;;;4.43;2.22;;;;;;;;;;5012030;28;20060;-70
2023/08/15 12:24:51;;;;;;;4.70;2.00;;;;;;;;;;5005486;28;20508;-70
2023/08/15 12:27:17;;;;;;;2.20;2.00;;;;;;;;;;5010678;28;20069;-70
2023/08/15 12:29:43;;;;;;;4.00;2.00;;;;;;;;;;5011826;28;20080;-70
2023/08/15 12:32:09;;;;;;;3.15;2.10;;;;;;;;;;5029813;28;20073;-70
2023/08/15 12:34:35;;;;;;;2.78;1.90;;;;;;;;;;5027023;28;20495;-70
2023/08/15 12:37:01;;;;;;;2.70;1.88;;;;;;;;;;5013750;28;20128;-70
2023/08/15 12:39:27;;;;;;;3.65;2.10;;;;;;;;;;5029746;28;20132;-70
2023/08/15 12:41:53;;;;;;;4.28;1.95;;;;;;;;;;5014408;28;20050;-70
2023/08/15 12:44:19;;;;;;;7.68;3.17;;;;;;;;;;5009692;28;20045;-70
2023/08/15 12:46:45;;;;;;;4.03;2.95;;;;;;;;;;5021096;28;20041;-70
2023/08/15 12:49:11;;;;;;;4.28;2.65;;;;;;;;;;5008511;28;20056;-70
2023/08/15 12:51:37;;;;;;;6.18;2.10;;;;;;;;;;5012200;28;20049;-70
2023/08/15 12:54:04;;;;;;;4.70;1.95;;;;;;;;;;5027849;28;20132;-70
2023/08/15 12:56:30;;;;;;;4.57;1.80;;;;;;;;;;4999261;28;20073;-70
2023/08/15 12:58:56;;;;;;;2.95;1.80;;;;;;;;;;5009568;28;20045;-70
2023/08/15 13:01:22;;;;;;;2.92;1.70;;;;;;;;;;5009609;28;20045;-71
2023/08/15 13:03:50;;;;;;;3.03;1.67;;;;;;;;;;4992452;28;20142;-70
2023/08/15 13:06:16;;;;;;;3.53;2.00;;;;;;;;;;5020183;28;20061;-70
2023/08/15 13:08:42;;;;;;;2.80;1.83;;;;;;;;;;5027788;28;20052;-70
2023/08/15 13:11:09;;;;;;;3.78;2.25;;;;;;;;;;5029999;28;20057;-70
2023/08/15 13:13:36;;;;;;;4.43;2.17;;;;;;;;;;4998936;28;20108;-71
2023/08/15 13:16:02;;;;;;;3.58;1.90;;;;;;;;;;5009234;28;20038;-69
2023/08/15 13:18:28;;;;;;;5.13;1.90;;;;;;;;;;5010229;28;20091;-70
2023/08/15 13:20:54;;;;;;;5.32;1.77;;;;;;;;;;5009127;28;20045;-70
2023/08/15 13:23:21;;;;;;;4.55;1.90;;;;;;;;;;5027992;28;20052;-70
2023/08/15 13:25:47;;;;;;;5.10;1.92;;;;;;;;;;5028097;28;20049;-70
2023/08/15 13:28:13;;;;;;;4.63;1.85;;;;;;;;;;5010809;28;20109;-70
2023/08/15 13:30:39;;;;;;;5.65;2.05;;;;;;;;;;5009734;28;20053;-70
2023/08/15 13:33:06;;;;;;;3.53;2.05;;;;;;;;;;5029546;28;20059;-70
2023/08/15 13:35:32;;;;;;;5.20;2.05;;;;;;;;;;5028170;28;20122;-70
2023/08/15 13:37:58;;;;;;;5.78;3.17;;;;;;;;;;5005919;28;20405;-70
2023/08/15 13:40:24;;;;;;;4.07;2.38;;;;;;;;;;5009095;28;20087;-70
2023/08/15 13:42:50;;;;;;;3.38;2.22;;;;;;;;;;5027506;28;20610;-70
2023/08/15 13:45:17;;;;;;;4.20;1.80;;;;;;;;;;5029494;28;20074;-70
2023/08/15 13:47:43;;;;;;;3.28;1.98;;;;;;;;;;5011609;28;20515;-70
2023/08/15 13:50:09;;;;;;;6.30;2.40;;;;;;;;;;5016997;28;20061;-70
2023/08/15 13:52:36;;;;;;;7.15;2.25;;;;;;;;;;5028955;28;20045;-70
2023/08/15 13:55:04;;;;;;;10.38;2.17;;;;;;;;;;5016797;28;20046;-70
2023/08/15 13:57:32;;;;;;;4.57;2.10;;;;;;;;;;4990155;28;20072;-70
2023/08/15 13:59:58;;;;;;;4.13;2.33;;;;;;;;;;5027566;28;20439;-70
2023/08/15 14:02:24;;;;;;;5.70;2.20;;;;;;;;;;5028854;28;20048;-70
2023/08/15 14:04:50;;;;;;;4.82;1.98;;;;;;;;;;5027804;28;20045;-71
2023/08/15 14:07:16;;;;;;;3.90;2.10;;;;;;;;;;5027189;28;20050;-70
2023/08/15 14:09:42;;;;;;;3.95;3.05;;;;;;;;;;5028590;28;20078;-70
2023/08/15 14:12:08;;;;;;;5.88;2.35;;;;;;;;;;5024543;28;20045;-70
2023/08/15 14:14:35;;;;;;;4.28;2.30;;;;;;;;;;5028734;28;20042;-71
2023/08/15 14:17:01;;;;;;;2.65;1.98;;;;;;;;;;5008466;28;20046;-70
2023/08/15 14:19:27;;;;;;;3.83;2.20;;;;;;;;;;4994397;28;20104;-70
2023/08/15 14:21:53;;;;;;;4.90;2.10;;;;;;;;;;5021068;28;20073;-70
2023/08/15 14:24:20;;;;;;;3.30;1.80;;;;;;;;;;5003837;28;20140;-69
2023/08/15 14:26:46;;;;;;;3.70;1.77;;;;;;;;;;5016651;28;20549;-68
2023/08/15 14:29:13;;;;;;;3.75;2.20;;;;;;;;;;5007701;28;20129;-69
2023/08/15 14:31:39;;;;;;;2.83;1.90;;;;;;;;;;5008093;28;20049;-69
2023/08/15 14:34:05;;;;;;;13.73;9.18;;;;;;;;;;5109039;27;20047;-68
2023/08/15 14:36:31;;;;;;;7.60;4.15;;;;;;;;;;5054643;27;20066;-69